sensor_id;sensor_type;location;lat;lon;timestamp;temperature;humidity
14783;DHT22;7483;50.498;12.138;2022-12-08T00:01:38;3.10;99.90
14783;DHT22;7483;50.498;12.138;2022-12-08T00:04:07;3.10;99.90
14783;DHT22;7483;50.498;12.138;2022-12-08T00:06:39;3.20;99.90
14783;DHT22;7483;50.498;12.138;2022-12-08T00:09:29;3.20;99.90
14783;DHT22;7483;50.498;12.138;2022-12-08T00:12:07;3.20;99.90
14783;DHT22;7483;50.498;12.138;2022-12-08T00:14:38;3.10;99.90
14783;DHT22;7483;50.498;12.138;2022-12-08T00:17:08;3.10;99.90
14783;DHT22;7483;50.498;12.138;2022-12-08T00:19:39;3.10;99.90
14783;DHT22;7483;50.498;12.138;2022-12-08T00:22:10;3.10;99.90
14783;DHT22;7483;50.498;12.138;2022-12-08T00:24:41;3.00;99.90
14783;DHT22;7483;50.498;12.138;2022-12-08T00:27:13;3.10;99.90
14783;DHT22;7483;50.498;12.138;2022-12-08T00:29:44;3.00;99.90
14783;DHT22;7483;50.498;12.138;2022-12-08T00:32:12;3.00;99.90
14783;DHT22;7483;50.498;12.138;2022-12-08T00:34:41;3.00;99.90
14783;DHT22;7483;50.498;12.138;2022-12-08T00:37:10;3.00;99.90
14783;DHT22;7483;50.498;12.138;2022-12-08T00:39:39;3.00;99.90
14783;DHT22;7483;50.498;12.138;2022-12-08T00:42:08;3.00;99.90
14783;DHT22;7483;50.498;12.138;2022-12-08T00:44:39;3.10;99.90
14783;DHT22;7483;50.498;12.138;2022-12-08T00:47:08;3.10;99.90
14783;DHT22;7483;50.498;12.138;2022-12-08T00:49:36;3.10;99.90
14783;DHT22;7483;50.498;12.138;2022-12-08T00:52:05;3.10;99.90
14783;DHT22;7483;50.498;12.138;2022-12-08T00:54:35;3.10;99.90
14783;DHT22;7483;50.498;12.138;2022-12-08T00:57:03;3.10;99.90
14783;DHT22;7483;50.498;12.138;2022-12-08T00:59:31;3.10;99.90
14783;DHT22;7483;50.498;12.138;2022-12-08T01:01:59;3.10;99.90
14783;DHT22;7483;50.498;12.138;2022-12-08T01:04:27;3.10;99.90
14783;DHT22;7483;50.498;12.138;2022-12-08T01:06:55;3.20;99.90
14783;DHT22;7483;50.498;12.138;2022-12-08T01:09:24;3.10;99.90
14783;DHT22;7483;50.498;12.138;2022-12-08T01:11:53;3.20;99.90
14783;DHT22;7483;50.498;12.138;2022-12-08T01:14:21;3.20;99.90
14783;DHT22;7483;50.498;12.138;2022-12-08T01:16:49;3.20;99.90
14783;DHT22;7483;50.498;12.138;2022-12-08T01:19:18;3.20;99.90
14783;DHT22;7483;50.498;12.138;2022-12-08T01:21:46;3.20;99.90
14783;DHT22;7483;50.498;12.138;2022-12-08T01:24:16;3.20;99.90
14783;DHT22;7483;50.498;12.138;2022-12-08T01:26:46;3.30;99.90
14783;DHT22;7483;50.498;12.138;2022-12-08T01:29:16;3.20;99.90
14783;DHT22;7483;50.498;12.138;2022-12-08T01:31:44;3.30;99.90
14783;DHT22;7483;50.498;12.138;2022-12-08T01:34:12;3.30;99.90
14783;DHT22;7483;50.498;12.138;2022-12-08T01:36:40;3.30;99.90
14783;DHT22;7483;50.498;12.138;2022-12-08T01:39:13;3.20;99.90
14783;DHT22;7483;50.498;12.138;2022-12-08T01:41:43;3.30;99.90
14783;DHT22;7483;50.498;12.138;2022-12-08T01:44:50;3.20;99.90
14783;DHT22;7483;50.498;12.138;2022-12-08T01:47:23;3.20;99.90
14783;DHT22;7483;50.498;12.138;2022-12-08T01:49:56;3.20;99.90
14783;DHT22;7483;50.498;12.138;2022-12-08T01:52:27;3.20;99.90
14783;DHT22;7483;50.498;12.138;2022-12-08T01:55:01;3.10;99.90
14783;DHT22;7483;50.498;12.138;2022-12-08T01:57:35;3.10;99.90
14783;DHT22;7483;50.498;12.138;2022-12-08T02:00:12;3.20;99.90
14783;DHT22;7483;50.498;12.138;2022-12-08T02:02:48;3.20;99.90
14783;DHT22;7483;50.498;12.138;2022-12-08T02:05:23;3.20;99.90
14783;DHT22;7483;50.498;12.138;2022-12-08T02:07:54;3.10;99.90
14783;DHT22;7483;50.498;12.138;2022-12-08T02:10:28;3.10;99.90
14783;DHT22;7483;50.498;12.138;2022-12-08T02:12:58;3.10;99.90
14783;DHT22;7483;50.498;12.138;2022-12-08T02:15:33;3.00;99.90
14783;DHT22;7483;50.498;12.138;2022-12-08T02:18:16;3.00;99.90
14783;DHT22;7483;50.498;12.138;2022-12-08T02:20:56;3.00;99.90
14783;DHT22;7483;50.498;12.138;2022-12-08T02:23:36;3.00;99.90
14783;DHT22;7483;50.498;12.138;2022-12-08T02:26:49;3.00;99.90
14783;DHT22;7483;50.498;12.138;2022-12-08T02:30:01;3.00;99.90
14783;DHT22;7483;50.498;12.138;2022-12-08T02:33:02;2.90;99.90
14783;DHT22;7483;50.498;12.138;2022-12-08T02:35:55;3.00;99.90
14783;DHT22;7483;50.498;12.138;2022-12-08T02:38:34;2.90;99.90
14783;DHT22;7483;50.498;12.138;2022-12-08T02:41:19;2.90;99.90
14783;DHT22;7483;50.498;12.138;2022-12-08T02:43:58;2.90;99.90
14783;DHT22;7483;50.498;12.138;2022-12-08T02:46:34;2.90;99.90
14783;DHT22;7483;50.498;12.138;2022-12-08T02:49:05;2.90;99.90
14783;DHT22;7483;50.498;12.138;2022-12-08T02:51:35;2.90;99.90
14783;DHT22;7483;50.498;12.138;2022-12-08T02:54:03;2.90;99.90
14783;DHT22;7483;50.498;12.138;2022-12-08T02:59:47;2.80;99.90
14783;DHT22;7483;50.498;12.138;2022-12-08T03:02:41;2.80;99.90
14783;DHT22;7483;50.498;12.138;2022-12-08T03:05:31;2.80;99.90
14783;DHT22;7483;50.498;12.138;2022-12-08T03:08:15;2.90;99.90
14783;DHT22;7483;50.498;12.138;2022-12-08T03:10:54;3.00;99.90
14783;DHT22;7483;50.498;12.138;2022-12-08T03:13:33;2.90;99.90
14783;DHT22;7483;50.498;12.138;2022-12-08T03:16:07;2.90;99.90
14783;DHT22;7483;50.498;12.138;2022-12-08T03:18:41;3.00;99.90
14783;DHT22;7483;50.498;12.138;2022-12-08T03:21:12;2.90;99.90
14783;DHT22;7483;50.498;12.138;2022-12-08T03:23:45;2.90;99.90
14783;DHT22;7483;50.498;12.138;2022-12-08T03:26:20;2.90;99.90
14783;DHT22;7483;50.498;12.138;2022-12-08T03:28:51;3.00;99.90
14783;DHT22;7483;50.498;12.138;2022-12-08T03:31:20;2.90;99.90
14783;DHT22;7483;50.498;12.138;2022-12-08T03:33:53;2.90;99.90
14783;DHT22;7483;50.498;12.138;2022-12-08T03:36:25;2.90;99.90
14783;DHT22;7483;50.498;12.138;2022-12-08T03:38:54;2.90;99.90
14783;DHT22;7483;50.498;12.138;2022-12-08T03:41:22;2.90;99.90
14783;DHT22;7483;50.498;12.138;2022-12-08T03:43:52;2.90;99.90
14783;DHT22;7483;50.498;12.138;2022-12-08T03:46:23;2.90;99.90
14783;DHT22;7483;50.498;12.138;2022-12-08T03:48:51;2.90;99.90
14783;DHT22;7483;50.498;12.138;2022-12-08T03:51:21;2.90;99.90
14783;DHT22;7483;50.498;12.138;2022-12-08T03:53:50;2.90;99.90
14783;DHT22;7483;50.498;12.138;2022-12-08T03:56:23;2.90;99.90
14783;DHT22;7483;50.498;12.138;2022-12-08T03:58:53;3.00;99.90
14783;DHT22;7483;50.498;12.138;2022-12-08T04:01:22;3.00;99.90
14783;DHT22;7483;50.498;12.138;2022-12-08T04:03:50;2.90;99.90
14783;DHT22;7483;50.498;12.138;2022-12-08T04:06:19;2.90;99.90
14783;DHT22;7483;50.498;12.138;2022-12-08T04:08:48;3.00;99.90
14783;DHT22;7483;50.498;12.138;2022-12-08T04:11:18;3.00;99.90
14783;DHT22;7483;50.498;12.138;2022-12-08T04:13:47;3.00;99.90
14783;DHT22;7483;50.498;12.138;2022-12-08T04:16:18;3.00;99.90
14783;DHT22;7483;50.498;12.138;2022-12-08T04:18:48;3.00;99.90
14783;DHT22;7483;50.498;12.138;2022-12-08T04:21:17;3.00;99.90
14783;DHT22;7483;50.498;12.138;2022-12-08T04:23:45;3.10;99.90
14783;DHT22;7483;50.498;12.138;2022-12-08T04:26:14;3.10;99.90
14783;DHT22;7483;50.498;12.138;2022-12-08T04:28:44;3.10;99.90
14783;DHT22;7483;50.498;12.138;2022-12-08T04:31:12;3.10;99.90
14783;DHT22;7483;50.498;12.138;2022-12-08T04:33:40;3.00;99.90
14783;DHT22;7483;50.498;12.138;2022-12-08T04:36:09;3.10;99.90
14783;DHT22;7483;50.498;12.138;2022-12-08T04:38:37;3.10;99.90
14783;DHT22;7483;50.498;12.138;2022-12-08T04:41:05;3.10;99.90
14783;DHT22;7483;50.498;12.138;2022-12-08T04:43:34;3.10;99.90
14783;DHT22;7483;50.498;12.138;2022-12-08T04:46:06;3.00;99.90
14783;DHT22;7483;50.498;12.138;2022-12-08T04:48:37;3.10;99.90
14783;DHT22;7483;50.498;12.138;2022-12-08T04:51:06;3.10;99.90
14783;DHT22;7483;50.498;12.138;2022-12-08T04:53:42;3.10;99.90
14783;DHT22;7483;50.498;12.138;2022-12-08T04:56:13;3.20;99.90
14783;DHT22;7483;50.498;12.138;2022-12-08T04:58:42;3.10;99.90
14783;DHT22;7483;50.498;12.138;2022-12-08T05:01:12;3.20;99.90
14783;DHT22;7483;50.498;12.138;2022-12-08T05:03:41;3.10;99.90
14783;DHT22;7483;50.498;12.138;2022-12-08T05:06:10;3.20;99.90
14783;DHT22;7483;50.498;12.138;2022-12-08T05:08:39;3.10;99.90
14783;DHT22;7483;50.498;12.138;2022-12-08T05:11:08;3.10;99.90
14783;DHT22;7483;50.498;12.138;2022-12-08T05:13:38;3.10;99.90
14783;DHT22;7483;50.498;12.138;2022-12-08T05:16:08;3.10;99.90
14783;DHT22;7483;50.498;12.138;2022-12-08T05:18:40;3.10;99.90
14783;DHT22;7483;50.498;12.138;2022-12-08T05:21:09;3.10;99.90
14783;DHT22;7483;50.498;12.138;2022-12-08T05:23:37;3.10;99.90
14783;DHT22;7483;50.498;12.138;2022-12-08T05:26:07;3.20;99.90
14783;DHT22;7483;50.498;12.138;2022-12-08T05:28:35;3.10;99.90
14783;DHT22;7483;50.498;12.138;2022-12-08T05:31:09;3.20;99.90
14783;DHT22;7483;50.498;12.138;2022-12-08T05:33:39;3.20;99.90
14783;DHT22;7483;50.498;12.138;2022-12-08T05:36:08;3.20;99.90
14783;DHT22;7483;50.498;12.138;2022-12-08T05:38:39;3.10;99.90
14783;DHT22;7483;50.498;12.138;2022-12-08T05:41:08;3.10;99.90
14783;DHT22;7483;50.498;12.138;2022-12-08T05:43:37;3.10;99.90
14783;DHT22;7483;50.498;12.138;2022-12-08T05:46:06;3.10;99.90
14783;DHT22;7483;50.498;12.138;2022-12-08T05:48:35;3.10;99.90
14783;DHT22;7483;50.498;12.138;2022-12-08T05:51:15;3.10;99.90
14783;DHT22;7483;50.498;12.138;2022-12-08T05:53:46;3.10;99.90
14783;DHT22;7483;50.498;12.138;2022-12-08T05:56:15;3.20;99.90
14783;DHT22;7483;50.498;12.138;2022-12-08T05:58:44;3.20;99.90
14783;DHT22;7483;50.498;12.138;2022-12-08T06:01:21;3.20;99.90
14783;DHT22;7483;50.498;12.138;2022-12-08T06:03:51;3.20;99.90
14783;DHT22;7483;50.498;12.138;2022-12-08T06:06:20;3.20;99.90
14783;DHT22;7483;50.498;12.138;2022-12-08T06:08:50;3.20;99.90
14783;DHT22;7483;50.498;12.138;2022-12-08T06:11:20;3.20;99.90
14783;DHT22;7483;50.498;12.138;2022-12-08T06:13:50;3.20;99.90
14783;DHT22;7483;50.498;12.138;2022-12-08T06:16:19;3.20;99.90
14783;DHT22;7483;50.498;12.138;2022-12-08T06:18:48;3.20;99.90
14783;DHT22;7483;50.498;12.138;2022-12-08T06:21:18;3.10;99.90
14783;DHT22;7483;50.498;12.138;2022-12-08T06:23:48;3.10;99.90
14783;DHT22;7483;50.498;12.138;2022-12-08T06:26:18;3.10;99.90
14783;DHT22;7483;50.498;12.138;2022-12-08T06:28:48;3.10;99.90
14783;DHT22;7483;50.498;12.138;2022-12-08T06:31:18;3.10;99.90
14783;DHT22;7483;50.498;12.138;2022-12-08T06:33:48;3.10;99.90
14783;DHT22;7483;50.498;12.138;2022-12-08T06:36:19;3.10;99.90
14783;DHT22;7483;50.498;12.138;2022-12-08T06:38:52;3.10;99.90
14783;DHT22;7483;50.498;12.138;2022-12-08T06:41:21;3.10;99.90
14783;DHT22;7483;50.498;12.138;2022-12-08T06:43:49;3.10;99.90
14783;DHT22;7483;50.498;12.138;2022-12-08T06:46:18;3.10;99.90
14783;DHT22;7483;50.498;12.138;2022-12-08T06:48:47;3.10;99.90
14783;DHT22;7483;50.498;12.138;2022-12-08T06:51:17;3.10;99.90
14783;DHT22;7483;50.498;12.138;2022-12-08T06:53:48;3.10;99.90
14783;DHT22;7483;50.498;12.138;2022-12-08T06:56:18;3.10;99.90
14783;DHT22;7483;50.498;12.138;2022-12-08T06:58:47;3.10;99.90
14783;DHT22;7483;50.498;12.138;2022-12-08T07:01:18;3.10;99.90
14783;DHT22;7483;50.498;12.138;2022-12-08T07:03:47;3.10;99.90
14783;DHT22;7483;50.498;12.138;2022-12-08T07:06:19;3.10;99.90
14783;DHT22;7483;50.498;12.138;2022-12-08T07:08:49;3.10;99.90
14783;DHT22;7483;50.498;12.138;2022-12-08T07:11:19;3.10;99.90
14783;DHT22;7483;50.498;12.138;2022-12-08T07:13:48;3.10;99.90
14783;DHT22;7483;50.498;12.138;2022-12-08T07:16:17;3.00;99.90
14783;DHT22;7483;50.498;12.138;2022-12-08T07:18:45;3.00;99.90
14783;DHT22;7483;50.498;12.138;2022-12-08T07:21:14;3.00;99.90
14783;DHT22;7483;50.498;12.138;2022-12-08T07:23:44;3.00;99.90
14783;DHT22;7483;50.498;12.138;2022-12-08T07:26:24;3.00;99.90
14783;DHT22;7483;50.498;12.138;2022-12-08T07:28:52;3.00;99.90
14783;DHT22;7483;50.498;12.138;2022-12-08T07:31:22;3.00;99.90
14783;DHT22;7483;50.498;12.138;2022-12-08T07:33:52;3.00;99.90
14783;DHT22;7483;50.498;12.138;2022-12-08T07:36:21;3.00;99.90
14783;DHT22;7483;50.498;12.138;2022-12-08T07:38:50;3.10;99.90
14783;DHT22;7483;50.498;12.138;2022-12-08T07:41:21;3.10;99.90
14783;DHT22;7483;50.498;12.138;2022-12-08T07:43:53;3.10;99.90
14783;DHT22;7483;50.498;12.138;2022-12-08T07:46:24;3.10;99.90
14783;DHT22;7483;50.498;12.138;2022-12-08T07:48:53;3.10;99.90
14783;DHT22;7483;50.498;12.138;2022-12-08T07:51:22;3.10;99.90
14783;DHT22;7483;50.498;12.138;2022-12-08T07:53:51;3.10;99.90
14783;DHT22;7483;50.498;12.138;2022-12-08T07:56:21;3.10;99.90
14783;DHT22;7483;50.498;12.138;2022-12-08T07:58:51;3.10;99.90
14783;DHT22;7483;50.498;12.138;2022-12-08T08:01:22;3.10;99.90
14783;DHT22;7483;50.498;12.138;2022-12-08T08:03:52;3.20;99.90
14783;DHT22;7483;50.498;12.138;2022-12-08T08:06:21;3.20;99.90
14783;DHT22;7483;50.498;12.138;2022-12-08T08:08:49;3.20;99.90
14783;DHT22;7483;50.498;12.138;2022-12-08T08:11:18;3.20;99.90
14783;DHT22;7483;50.498;12.138;2022-12-08T08:13:49;3.20;99.90
14783;DHT22;7483;50.498;12.138;2022-12-08T08:16:18;3.20;99.90
14783;DHT22;7483;50.498;12.138;2022-12-08T08:18:48;3.20;99.90
14783;DHT22;7483;50.498;12.138;2022-12-08T08:21:18;3.20;99.90
14783;DHT22;7483;50.498;12.138;2022-12-08T08:24:07;3.20;99.90
14783;DHT22;7483;50.498;12.138;2022-12-08T08:26:35;3.20;99.90
14783;DHT22;7483;50.498;12.138;2022-12-08T08:29:05;3.20;99.90
14783;DHT22;7483;50.498;12.138;2022-12-08T08:31:33;3.20;99.90
14783;DHT22;7483;50.498;12.138;2022-12-08T08:34:02;3.20;99.90
14783;DHT22;7483;50.498;12.138;2022-12-08T08:36:32;3.30;99.90
14783;DHT22;7483;50.498;12.138;2022-12-08T08:39:00;3.30;99.90
14783;DHT22;7483;50.498;12.138;2022-12-08T08:41:28;3.30;99.90
14783;DHT22;7483;50.498;12.138;2022-12-08T08:43:56;3.40;99.90
14783;DHT22;7483;50.498;12.138;2022-12-08T08:46:26;3.40;99.90
14783;DHT22;7483;50.498;12.138;2022-12-08T08:48:54;3.40;99.90
14783;DHT22;7483;50.498;12.138;2022-12-08T08:51:22;3.40;99.90
14783;DHT22;7483;50.498;12.138;2022-12-08T08:53:50;3.40;99.90
14783;DHT22;7483;50.498;12.138;2022-12-08T08:56:18;3.40;99.90
14783;DHT22;7483;50.498;12.138;2022-12-08T08:58:47;3.40;99.90
14783;DHT22;7483;50.498;12.138;2022-12-08T09:01:18;3.40;99.90
14783;DHT22;7483;50.498;12.138;2022-12-08T09:03:50;3.40;99.90
14783;DHT22;7483;50.498;12.138;2022-12-08T09:06:19;3.40;99.90
14783;DHT22;7483;50.498;12.138;2022-12-08T09:08:48;3.40;99.90
14783;DHT22;7483;50.498;12.138;2022-12-08T09:11:17;3.50;99.90
14783;DHT22;7483;50.498;12.138;2022-12-08T09:13:46;3.50;99.90
14783;DHT22;7483;50.498;12.138;2022-12-08T09:16:16;3.60;99.90
14783;DHT22;7483;50.498;12.138;2022-12-08T09:18:45;3.60;99.90
14783;DHT22;7483;50.498;12.138;2022-12-08T09:21:18;3.60;99.90
14783;DHT22;7483;50.498;12.138;2022-12-08T09:23:49;3.60;99.90
14783;DHT22;7483;50.498;12.138;2022-12-08T09:26:17;3.60;99.90
14783;DHT22;7483;50.498;12.138;2022-12-08T09:28:48;3.60;99.90
14783;DHT22;7483;50.498;12.138;2022-12-08T09:31:17;3.60;99.90
14783;DHT22;7483;50.498;12.138;2022-12-08T09:33:47;3.60;99.90
14783;DHT22;7483;50.498;12.138;2022-12-08T09:36:19;3.60;99.90
14783;DHT22;7483;50.498;12.138;2022-12-08T09:38:48;3.70;99.90
14783;DHT22;7483;50.498;12.138;2022-12-08T09:41:26;3.70;99.90
14783;DHT22;7483;50.498;12.138;2022-12-08T09:44:18;3.70;99.90
14783;DHT22;7483;50.498;12.138;2022-12-08T09:47:12;3.70;99.90
14783;DHT22;7483;50.498;12.138;2022-12-08T09:49:50;3.70;99.90
14783;DHT22;7483;50.498;12.138;2022-12-08T09:52:29;3.70;99.90
14783;DHT22;7483;50.498;12.138;2022-12-08T09:55:03;3.70;99.90
14783;DHT22;7483;50.498;12.138;2022-12-08T09:57:39;3.70;99.90
14783;DHT22;7483;50.498;12.138;2022-12-08T10:00:11;3.70;99.90
14783;DHT22;7483;50.498;12.138;2022-12-08T10:02:41;3.80;99.90
14783;DHT22;7483;50.498;12.138;2022-12-08T10:05:12;3.70;99.90
14783;DHT22;7483;50.498;12.138;2022-12-08T10:07:45;3.70;99.90
14783;DHT22;7483;50.498;12.138;2022-12-08T10:10:24;3.70;99.90
14783;DHT22;7483;50.498;12.138;2022-12-08T10:13:02;3.70;99.90
14783;DHT22;7483;50.498;12.138;2022-12-08T10:15:43;3.70;99.90
14783;DHT22;7483;50.498;12.138;2022-12-08T10:18:17;3.60;99.90
14783;DHT22;7483;50.498;12.138;2022-12-08T10:20:48;3.60;99.90
14783;DHT22;7483;50.498;12.138;2022-12-08T10:23:23;3.50;99.90
14783;DHT22;7483;50.498;12.138;2022-12-08T10:26:00;3.50;99.90
14783;DHT22;7483;50.498;12.138;2022-12-08T10:28:30;3.50;99.90
14783;DHT22;7483;50.498;12.138;2022-12-08T10:31:04;3.50;99.90
14783;DHT22;7483;50.498;12.138;2022-12-08T10:33:33;3.50;99.90
14783;DHT22;7483;50.498;12.138;2022-12-08T10:36:01;3.50;99.90
14783;DHT22;7483;50.498;12.138;2022-12-08T10:38:33;3.50;99.90
14783;DHT22;7483;50.498;12.138;2022-12-08T10:41:05;3.40;99.90
14783;DHT22;7483;50.498;12.138;2022-12-08T10:43:42;3.40;99.90
14783;DHT22;7483;50.498;12.138;2022-12-08T10:46:15;3.40;99.90
14783;DHT22;7483;50.498;12.138;2022-12-08T10:48:51;3.40;99.90
14783;DHT22;7483;50.498;12.138;2022-12-08T10:51:23;3.40;99.90
14783;DHT22;7483;50.498;12.138;2022-12-08T10:53:55;3.40;99.90
14783;DHT22;7483;50.498;12.138;2022-12-08T10:56:25;3.50;99.90
14783;DHT22;7483;50.498;12.138;2022-12-08T10:59:11;3.40;99.90
14783;DHT22;7483;50.498;12.138;2022-12-08T11:01:44;3.40;99.90
14783;DHT22;7483;50.498;12.138;2022-12-08T11:04:16;3.40;99.90
14783;DHT22;7483;50.498;12.138;2022-12-08T11:06:47;3.40;99.90
14783;DHT22;7483;50.498;12.138;2022-12-08T11:09:36;3.40;99.90
14783;DHT22;7483;50.498;12.138;2022-12-08T11:12:12;3.40;99.90
14783;DHT22;7483;50.498;12.138;2022-12-08T11:14:48;3.40;99.90
14783;DHT22;7483;50.498;12.138;2022-12-08T11:17:24;3.30;99.90
14783;DHT22;7483;50.498;12.138;2022-12-08T11:19:56;3.30;99.90
14783;DHT22;7483;50.498;12.138;2022-12-08T11:22:28;3.30;99.90
14783;DHT22;7483;50.498;12.138;2022-12-08T11:25:01;3.30;99.90
14783;DHT22;7483;50.498;12.138;2022-12-08T11:27:39;3.40;99.90
14783;DHT22;7483;50.498;12.138;2022-12-08T11:30:13;3.40;99.90
14783;DHT22;7483;50.498;12.138;2022-12-08T11:32:45;3.40;99.90
14783;DHT22;7483;50.498;12.138;2022-12-08T11:35:20;3.40;99.90
14783;DHT22;7483;50.498;12.138;2022-12-08T11:37:53;3.40;99.90
14783;DHT22;7483;50.498;12.138;2022-12-08T11:40:47;3.40;99.90
14783;DHT22;7483;50.498;12.138;2022-12-08T11:43:22;3.50;99.90
14783;DHT22;7483;50.498;12.138;2022-12-08T11:45:59;3.50;99.90
14783;DHT22;7483;50.498;12.138;2022-12-08T11:48:32;3.60;99.90
14783;DHT22;7483;50.498;12.138;2022-12-08T11:51:06;3.60;99.90
14783;DHT22;7483;50.498;12.138;2022-12-08T11:53:45;3.60;99.90
14783;DHT22;7483;50.498;12.138;2022-12-08T11:56:31;3.70;99.90
14783;DHT22;7483;50.498;12.138;2022-12-08T11:59:06;3.70;99.90
14783;DHT22;7483;50.498;12.138;2022-12-08T12:01:39;3.70;99.90
14783;DHT22;7483;50.498;12.138;2022-12-08T12:04:15;3.70;99.90
14783;DHT22;7483;50.498;12.138;2022-12-08T12:07:01;3.70;99.90
14783;DHT22;7483;50.498;12.138;2022-12-08T12:10:03;3.60;99.90
14783;DHT22;7483;50.498;12.138;2022-12-08T12:12:52;3.60;99.90
14783;DHT22;7483;50.498;12.138;2022-12-08T12:16:02;3.60;99.90
14783;DHT22;7483;50.498;12.138;2022-12-08T12:18:46;3.60;99.90
14783;DHT22;7483;50.498;12.138;2022-12-08T12:21:21;3.60;99.90
14783;DHT22;7483;50.498;12.138;2022-12-08T12:23:55;3.60;99.90
14783;DHT22;7483;50.498;12.138;2022-12-08T12:26:28;3.60;99.90
14783;DHT22;7483;50.498;12.138;2022-12-08T12:29:03;3.60;99.90
14783;DHT22;7483;50.498;12.138;2022-12-08T12:31:36;3.50;99.90
14783;DHT22;7483;50.498;12.138;2022-12-08T12:34:13;3.50;99.90
14783;DHT22;7483;50.498;12.138;2022-12-08T12:36:46;3.50;99.90
14783;DHT22;7483;50.498;12.138;2022-12-08T12:39:21;3.50;99.90
14783;DHT22;7483;50.498;12.138;2022-12-08T12:41:53;3.60;99.90
14783;DHT22;7483;50.498;12.138;2022-12-08T12:44:40;3.60;99.90
14783;DHT22;7483;50.498;12.138;2022-12-08T12:47:13;3.60;99.90
14783;DHT22;7483;50.498;12.138;2022-12-08T12:50:07;3.60;99.90
14783;DHT22;7483;50.498;12.138;2022-12-08T12:52:42;3.50;99.90
14783;DHT22;7483;50.498;12.138;2022-12-08T12:55:23;3.50;99.90
14783;DHT22;7483;50.498;12.138;2022-12-08T12:58:37;3.50;99.90
14783;DHT22;7483;50.498;12.138;2022-12-08T13:04:33;3.50;99.90
14783;DHT22;7483;50.498;12.138;2022-12-08T13:07:03;3.40;99.90
14783;DHT22;7483;50.498;12.138;2022-12-08T13:09:34;3.40;99.90
14783;DHT22;7483;50.498;12.138;2022-12-08T13:12:11;3.40;99.90
14783;DHT22;7483;50.498;12.138;2022-12-08T13:14:50;3.50;99.90
14783;DHT22;7483;50.498;12.138;2022-12-08T13:17:27;3.50;99.90
14783;DHT22;7483;50.498;12.138;2022-12-08T13:20:00;3.50;99.90
14783;DHT22;7483;50.498;12.138;2022-12-08T13:23:10;3.40;99.90
14783;DHT22;7483;50.498;12.138;2022-12-08T13:25:49;3.40;99.90
14783;DHT22;7483;50.498;12.138;2022-12-08T13:28:33;3.40;99.90
14783;DHT22;7483;50.498;12.138;2022-12-08T13:31:35;3.40;99.90
14783;DHT22;7483;50.498;12.138;2022-12-08T13:34:15;3.40;99.90
14783;DHT22;7483;50.498;12.138;2022-12-08T13:36:56;3.50;99.90
14783;DHT22;7483;50.498;12.138;2022-12-08T13:39:39;3.40;99.90
14783;DHT22;7483;50.498;12.138;2022-12-08T13:42:17;3.40;99.90
14783;DHT22;7483;50.498;12.138;2022-12-08T13:44:51;3.40;99.90
14783;DHT22;7483;50.498;12.138;2022-12-08T13:47:44;3.50;99.90
14783;DHT22;7483;50.498;12.138;2022-12-08T13:50:39;3.50;99.90
14783;DHT22;7483;50.498;12.138;2022-12-08T13:53:32;3.60;99.90
14783;DHT22;7483;50.498;12.138;2022-12-08T13:56:25;3.60;99.90
14783;DHT22;7483;50.498;12.138;2022-12-08T13:59:26;3.50;99.90
14783;DHT22;7483;50.498;12.138;2022-12-08T14:02:00;3.60;99.90
14783;DHT22;7483;50.498;12.138;2022-12-08T14:04:31;3.50;99.90
14783;DHT22;7483;50.498;12.138;2022-12-08T14:07:21;3.50;99.90
14783;DHT22;7483;50.498;12.138;2022-12-08T14:09:51;3.50;99.90
14783;DHT22;7483;50.498;12.138;2022-12-08T14:12:21;3.50;99.90
14783;DHT22;7483;50.498;12.138;2022-12-08T14:14:55;3.40;99.90
14783;DHT22;7483;50.498;12.138;2022-12-08T14:17:30;3.50;99.90
14783;DHT22;7483;50.498;12.138;2022-12-08T14:20:00;3.40;99.90
14783;DHT22;7483;50.498;12.138;2022-12-08T14:22:43;3.50;99.90
14783;DHT22;7483;50.498;12.138;2022-12-08T14:25:15;3.50;99.90
14783;DHT22;7483;50.498;12.138;2022-12-08T14:27:44;3.50;99.90
14783;DHT22;7483;50.498;12.138;2022-12-08T14:30:18;3.50;99.90
14783;DHT22;7483;50.498;12.138;2022-12-08T14:32:50;3.50;99.90
14783;DHT22;7483;50.498;12.138;2022-12-08T14:35:24;3.50;99.90
14783;DHT22;7483;50.498;12.138;2022-12-08T14:37:56;3.50;99.90
14783;DHT22;7483;50.498;12.138;2022-12-08T14:40:29;3.50;99.90
14783;DHT22;7483;50.498;12.138;2022-12-08T14:43:15;3.50;99.90
14783;DHT22;7483;50.498;12.138;2022-12-08T14:45:46;3.40;99.90
14783;DHT22;7483;50.498;12.138;2022-12-08T14:48:23;3.40;99.90
14783;DHT22;7483;50.498;12.138;2022-12-08T14:50:57;3.40;99.90
14783;DHT22;7483;50.498;12.138;2022-12-08T14:53:37;3.40;99.90
14783;DHT22;7483;50.498;12.138;2022-12-08T14:56:14;3.50;99.90
14783;DHT22;7483;50.498;12.138;2022-12-08T14:58:46;3.40;99.90
14783;DHT22;7483;50.498;12.138;2022-12-08T15:01:20;3.50;99.90
14783;DHT22;7483;50.498;12.138;2022-12-08T15:03:50;3.50;99.90
14783;DHT22;7483;50.498;12.138;2022-12-08T15:06:20;3.40;99.90
14783;DHT22;7483;50.498;12.138;2022-12-08T15:08:55;3.40;99.90
14783;DHT22;7483;50.498;12.138;2022-12-08T15:11:33;3.40;99.90
14783;DHT22;7483;50.498;12.138;2022-12-08T15:14:02;3.40;99.90
14783;DHT22;7483;50.498;12.138;2022-12-08T15:16:37;3.50;99.90
14783;DHT22;7483;50.498;12.138;2022-12-08T15:19:17;3.40;99.90
14783;DHT22;7483;50.498;12.138;2022-12-08T15:21:53;3.40;99.90
14783;DHT22;7483;50.498;12.138;2022-12-08T15:24:26;3.40;99.90
14783;DHT22;7483;50.498;12.138;2022-12-08T15:26:57;3.40;99.90
14783;DHT22;7483;50.498;12.138;2022-12-08T15:29:28;3.30;99.90
14783;DHT22;7483;50.498;12.138;2022-12-08T15:31:59;3.40;99.90
14783;DHT22;7483;50.498;12.138;2022-12-08T15:34:28;3.40;99.90
14783;DHT22;7483;50.498;12.138;2022-12-08T15:36:57;3.40;99.90
14783;DHT22;7483;50.498;12.138;2022-12-08T15:39:34;3.40;99.90
14783;DHT22;7483;50.498;12.138;2022-12-08T15:42:10;3.40;99.90
14783;DHT22;7483;50.498;12.138;2022-12-08T15:44:40;3.40;99.90
14783;DHT22;7483;50.498;12.138;2022-12-08T15:47:14;3.40;99.90
14783;DHT22;7483;50.498;12.138;2022-12-08T15:49:44;3.50;99.90
14783;DHT22;7483;50.498;12.138;2022-12-08T15:52:16;3.50;99.90
14783;DHT22;7483;50.498;12.138;2022-12-08T15:54:47;3.50;99.90
14783;DHT22;7483;50.498;12.138;2022-12-08T15:57:18;3.40;99.90
14783;DHT22;7483;50.498;12.138;2022-12-08T16:00:24;3.40;99.90
14783;DHT22;7483;50.498;12.138;2022-12-08T16:03:20;3.40;99.90
14783;DHT22;7483;50.498;12.138;2022-12-08T16:06:14;3.40;99.90
14783;DHT22;7483;50.498;12.138;2022-12-08T16:09:04;3.40;99.90
14783;DHT22;7483;50.498;12.138;2022-12-08T16:11:42;3.40;99.90
14783;DHT22;7483;50.498;12.138;2022-12-08T16:14:35;3.30;99.90
14783;DHT22;7483;50.498;12.138;2022-12-08T16:17:24;3.30;99.90
14783;DHT22;7483;50.498;12.138;2022-12-08T16:19:53;3.30;99.90
14783;DHT22;7483;50.498;12.138;2022-12-08T16:22:23;3.30;99.90
14783;DHT22;7483;50.498;12.138;2022-12-08T16:25:12;3.30;99.90
14783;DHT22;7483;50.498;12.138;2022-12-08T16:27:49;3.30;99.90
14783;DHT22;7483;50.498;12.138;2022-12-08T16:30:39;3.30;99.90
14783;DHT22;7483;50.498;12.138;2022-12-08T16:33:09;3.30;99.90
14783;DHT22;7483;50.498;12.138;2022-12-08T16:35:39;3.30;99.90